Haines, AK (99827)

3:57 PM AKDT on July 31, 2014 (GMT -0800)
Haines (PAHN) Elev 16 ft | 59.24 °N, 135.51 °W | Change Station

Current weather conditions updated 3 minutes ago

Clear
Clear
66 °F
Feels Like 66 °F
N
9
Wind Variable Wind from ESE

Today is forecast to be Warmer than yesterday.

Today
High -- | Low -- °F
--% Chance of Precip.
Yesterday
High -- | Low -- °F
Precip. -- in
4:45 AM 9:29 PM
Waxing Crescent, 22% visible
Pressure 30.25 in
Visibility 10.0 miles
Clouds Clear
Dew Point 51 °F
Humidity 59%
Rainfall 0.00 in
Snow Depth Not available.
UV 5 out of 12
Pollen Not available.
Air Quality Not available.
Flu Activity Not available.
METAR PAHN 312354Z AUTO 12008KT 10SM CLR 19/11 A3024 RMK AO2 SLP243 T01890106 10211 20161 58009 TSNO

More Conditions Fewer Conditions

Pressure 30.25 in
Visibility 10.0 miles
Clouds Clear
Dew Point 51 °F
Humidity 59%
Rainfall 0.00 in
Snow Depth Not available.
UV 5 out of 12
Pollen Not available.
Air Quality Not available.
Flu Activity Not available.
METAR PAHN 312354Z AUTO 12008KT 10SM CLR 19/11 A3024 RMK AO2 SLP243 T01890106 10211 20161 58009 TSNO

More Conditions Fewer Conditions

10-Day Weather Forecast

Almanac

Astronomy

Jul. 31, 2014 Rise Set
Actual Time 4:45 AM AKDT 9:29 PM AKDT
Civil Twilight 3:47 AM AKDT 10:26 PM AKDT
Nautical Twilight 1:52 AM AKDT 12:15 AM AKDT
Astronomical Twilight Sun does not rise Sun does not rise
Moon 10:41 AM AKDT 10:19 PM AKDT
Length of Visible Light 18h 39m
Length of Day
16h 43m
Tomorrow will be 4m 37s shorter.
Waxing Crescent, 22% of the Moon is Illuminated
Today
Waxing Crescent
Aug 3
First Quarter
Aug 10
Full
Aug 17
Last Quarter
Aug 25
New

Today's Extremes

State Highs State Lows

Community

WunderPhotos

Upload Photos

1,739,460 photos uploaded!

Nearby

Snow Depth

Station Depth Elevation
Long Lake 0 in 820 ft
Upper Tsaina River 0 in 1750 ft
Granite Creek 0 in 1240 ft
Grandview 2 in 1100 ft
Grouse Creek Divide 0 in 700 ft

Earthquake Activity

City Distance Mag. Time & Date
No recent earthquake activity has been reported nearby.
Minimum magnitude displayed is 2.5.

Coastal Water Temperatures

Place Temperature
No Stations Reporting

Nearby Weather Stations

Station Location Temp. Dew Point Humidity Wind Precip. Elev Updated Type
RAWS TAIYA RIVER AK, Skagway, AK 66 °F 51 °F 58% SSE  at  2 mph 0.00 in / hr 49 ft 3:24 PM AKDT MADIS
MARITIME , Haines, AK 62 °F 54 °F 75% South  at  9 mph 0.00 in / hr 55 ft 3:00 PM AKDT MADIS
RAWS GOAT LAKE AK, Skagway, AK 59 °F 37 °F 43% North  at  - 0.00 in / hr 2924 ft 3:24 PM AKDT MADIS

Show More Stations Show Fewer Stations